Date,TemperatureHighF,TemperatureAvgF,TemperatureLowF,DewpointHighF,DewpointAvgF,DewpointLowF,HumidityHigh,HumidityAvg,HumidityLow,PressureMaxIn,PressureMinIn,WindSpeedMaxMPH,WindSpeedAvgMPH,GustSpeedMaxMPH,PrecipitationSumIn
2013-8-2,70,66,62,62,60,58,89,81,74,29.95,29.89,12,2,13,0.00
2013-8-3,71,65,60,62,60,58,95,83,72,29.97,29.92,8,1,12,0.00
2013-8-4,71,65,61,63,61,59,95,87,74,29.99,29.91,10,0,13,0.00
2013-8-5,70,65,62,63,61,59,93,87,76,29.98,29.92,12,1,12,0.00
2013-8-6,69,64,60,61,60,58,95,86,73,30.02,29.93,11,1,15,0.00
2013-8-7,72,66,61,62,60,59,95,84,71,30.06,29.96,11,1,13,0.00
2013-8-8,70,65,60,63,61,59,96,88,75,29.98,29.89,9,1,11,0.00
2013-8-9,70,64,58,62,60,56,94,84,73,29.95,29.88,11,1,12,0.00
2013-8-10,70,63,57,60,58,56,95,85,70,30.01,29.94,10,0,13,0.00
2013-8-11,67,62,58,61,59,57,96,90,82,29.97,29.89,5,0,7,0.00
2013-8-12,71,64,60,63,60,58,96,88,76,29.95,29.89,11,0,11,0.00
2013-8-13,71,64,61,64,61,59,94,88,77,29.95,29.87,11,0,12,0.00
2013-8-14,70,64,61,64,62,60,96,90,80,29.91,29.83,9,0,9,0.00
2013-8-15,71,66,62,65,62,60,96,90,80,29.92,29.85,10,0,11,0.00
2013-8-16,74,67,60,66,63,60,98,89,73,29.94,29.88,8,0,10,0.00
2013-8-17,74,67,63,66,64,61,97,89,77,29.93,29.81,11,0,13,0.00
2013-8-18,71,65,62,65,62,60,96,90,79,29.88,29.81,12,1,12,0.00
2013-8-19,73,66,63,65,62,61,93,88,73,29.92,29.85,11,0,11,0.00
2013-8-20,72,66,63,65,63,61,95,89,78,29.90,29.82,10,1,11,0.00
2013-8-21,73,68,64,66,64,62,96,88,78,29.90,29.82,12,1,12,0.00
2013-8-22,75,69,62,66,63,61,97,84,65,29.89,29.79,11,1,12,0.00
2013-8-23,75,68,62,67,64,61,98,88,63,29.85,29.73,10,0,12,0.00
2013-8-24,72,66,63,65,63,61,97,88,76,29.86,29.76,10,1,12,0.00
2013-8-25,74,66,61,66,63,60,98,90,72,29.88,29.80,9,0,10,0.01
2013-8-26,76,69,65,68,64,62,93,84,69,29.90,29.79,10,0,11,0.00
2013-8-27,78,71,66,68,65,61,96,84,60,29.82,29.75,10,0,11,0.00
2013-8-28,79,72,65,68,65,61,96,80,64,29.86,29.74,10,0,10,0.00
2013-8-29,80,72,66,67,62,51,94,74,39,29.90,29.83,9,0,9,0.00
2013-8-30,88,79,70,72,68,59,82,70,55,29.95,29.86,9,0,10,0.00
2013-8-31,84,76,71,72,69,64,93,81,57,29.93,29.85,8,0,11,0.00